Time;durP1;ratioP1;P1;durP2;ratioP2;P2;SDS_P1;SDS_P2;PMS_P1;PMS_P2;Temp;Humidity;BMP_temperature;BMP_pressure;BME280_temperature;BME280_humidity;BME280_pressure;Samples;Min_cycle;Max_cycle;Signal;HPM_P1;HPM_P2
2022/12/28 00:01:18;;;;;;;19.75;7.53;;;;;;;3.07;88.77;98992.13;1760017;81;21041;-80
2022/12/28 00:03:45;;;;;;;12.45;6.95;;;;;;;3.03;88.97;98998.95;1730884;82;21028;-79
2022/12/28 00:06:12;;;;;;;11.75;4.72;;;;;;;3.01;89.07;98997.00;1723815;81;21018;-78
2022/12/28 00:08:39;;;;;;;13.85;5.55;;;;;;;2.99;89.00;98997.73;1731911;82;21019;-80
2022/12/28 00:11:09;;;;;;;13.70;6.25;;;;;;;2.99;89.03;99000.41;1752607;81;21028;-80
2022/12/28 00:13:36;;;;;;;12.85;5.03;;;;;;;2.94;89.28;98993.50;1746058;82;21520;-80
2022/12/28 00:16:16;;;;;;;8.80;4.00;;;;;;;2.92;89.35;98988.05;1769053;81;21264;-78
2022/12/28 00:18:43;;;;;;;10.28;4.85;;;;;;;2.91;89.54;98983.73;1733102;80;21485;-78
2022/12/28 00:21:10;;;;;;;10.15;4.67;;;;;;;2.90;89.56;98983.39;1768985;81;20992;-78
2022/12/28 00:23:37;;;;;;;16.60;7.55;;;;;;;2.89;89.40;98981.23;1768623;81;21019;-79
2022/12/28 00:26:09;;;;;;;12.03;5.45;;;;;;;2.90;89.36;98985.55;1768624;81;21029;-80
2022/12/28 00:28:36;;;;;;;11.25;4.95;;;;;;;2.84;89.53;98985.06;1745697;81;21032;-80
2022/12/28 00:31:04;;;;;;;9.30;4.95;;;;;;;2.85;89.58;98983.20;1768747;81;21052;-82
2022/12/28 00:33:30;;;;;;;10.50;4.60;;;;;;;2.81;89.51;98981.44;1768692;81;21016;-78
2022/12/28 00:35:59;;;;;;;9.80;4.12;;;;;;;2.80;89.57;98977.12;1746048;82;21072;-80
2022/12/28 00:38:28;;;;;;;9.20;4.33;;;;;;;2.78;89.57;98976.51;1738584;81;24288;-79
2022/12/28 00:40:55;;;;;;;9.90;4.30;;;;;;;2.75;89.62;98973.73;1768996;81;22172;-80
2022/12/28 00:43:22;;;;;;;10.60;4.15;;;;;;;2.75;89.46;98978.27;1768706;81;21015;-80
2022/12/28 00:45:48;;;;;;;8.48;3.72;;;;;;;2.73;89.53;98979.79;1768798;81;21500;-78
2022/12/28 00:48:16;;;;;;;6.47;3.80;;;;;;;2.72;89.70;98986.69;1768731;81;20968;-78
2022/12/28 00:50:43;;;;;;;6.90;3.58;;;;;;;2.71;89.67;98995.23;1746011;82;21853;-79
2022/12/28 00:53:10;;;;;;;7.53;3.42;;;;;;;2.70;89.71;98990.09;1768599;81;21008;-78
2022/12/28 00:55:37;;;;;;;9.50;3.22;;;;;;;2.70;89.82;98993.59;1747995;81;21029;-78
2022/12/28 00:58:04;;;;;;;7.90;3.55;;;;;;;2.69;89.72;98998.64;1752302;81;21576;-78
2022/12/28 01:00:31;;;;;;;8.65;3.95;;;;;;;2.68;89.72;98994.84;1752355;81;21021;-80
2022/12/28 01:02:58;;;;;;;8.35;3.62;;;;;;;2.66;89.68;98995.56;1752395;81;21438;-80
2022/12/28 01:05:25;;;;;;;9.48;3.95;;;;;;;2.62;89.76;98997.81;1752318;81;21251;-79
2022/12/28 01:07:52;;;;;;;8.78;3.30;;;;;;;2.60;89.78;98997.20;1752251;81;21529;-82
2022/12/28 01:10:19;;;;;;;12.23;4.47;;;;;;;2.59;89.76;99002.76;1752497;81;21065;-80
2022/12/28 01:12:46;;;;;;;11.08;3.90;;;;;;;2.55;89.80;99003.66;1750874;81;21099;-80
2022/12/28 01:15:13;;;;;;;6.83;3.77;;;;;;;2.54;89.75;99007.37;1770993;81;21946;-78
2022/12/28 01:17:40;;;;;;;9.93;3.72;;;;;;;2.51;89.86;99001.09;1771044;81;21000;-79
2022/12/28 01:20:08;;;;;;;8.28;3.83;;;;;;;2.49;89.91;99001.31;1771040;81;21003;-79
2022/12/28 01:22:35;;;;;;;9.55;3.60;;;;;;;2.48;90.11;99001.52;1750319;81;20982;-79
2022/12/28 01:25:02;;;;;;;7.58;3.62;;;;;;;2.47;89.87;99002.00;1771028;81;21071;-80
2022/12/28 01:27:29;;;;;;;6.00;2.65;;;;;;;2.43;90.22;98999.44;1771247;81;20997;-78
2022/12/28 01:29:56;;;;;;;10.40;3.20;;;;;;;2.42;90.11;98996.45;1750429;82;20997;-79
2022/12/28 01:32:25;;;;;;;6.20;3.47;;;;;;;2.42;90.30;98995.63;1771137;81;21008;-78
2022/12/28 01:34:52;;;;;;;7.80;3.00;;;;;;;2.40;90.33;98989.16;1750507;82;20996;-78
2022/12/28 01:37:19;;;;;;;5.60;2.70;;;;;;;2.40;90.45;98988.33;1771235;81;21444;-80
2022/12/28 01:39:46;;;;;;;7.05;2.95;;;;;;;2.38;90.48;98992.52;1771000;81;21163;-80
2022/12/28 01:42:18;;;;;;;7.10;3.35;;;;;;;2.35;90.49;98988.92;1750684;82;21495;-79
2022/12/28 01:44:47;;;;;;;8.10;3.92;;;;;;;2.31;90.56;98986.36;1742376;81;21011;-80
2022/12/28 01:47:22;;;;;;;10.30;3.47;;;;;;;2.26;90.65;98978.93;1750753;82;21023;-80
2022/12/28 01:49:54;;;;;;;5.20;3.33;;;;;;;2.22;90.67;98979.04;1771033;81;21016;-80
2022/12/28 01:52:27;;;;;;;10.75;4.05;;;;;;;2.18;90.83;98980.97;1755185;81;21039;-78
2022/12/28 01:55:17;;;;;;;10.75;4.70;;;;;;;2.13;90.78;98980.23;1750420;81;21012;-79
2022/12/28 01:58:04;;;;;;;9.73;4.10;;;;;;;2.10;90.80;98979.30;1752305;81;21188;-80
2022/12/28 02:00:31;;;;;;;15.18;5.53;;;;;;;2.06;90.85;98983.42;1752013;81;21517;-80
2022/12/28 02:03:06;;;;;;;15.32;4.83;;;;;;;2.02;90.85;98980.00;1752333;81;20994;-80
2022/12/28 02:05:40;;;;;;;7.90;3.50;;;;;;;2.00;90.94;98986.06;1752050;81;21765;-80
2022/12/28 02:08:30;;;;;;;6.42;3.40;;;;;;;1.97;90.99;98984.12;1751580;81;21009;-80
2022/12/28 02:10:57;;;;;;;8.70;3.87;;;;;;;1.90;91.04;98981.11;1746715;81;21009;-80
2022/12/28 02:13:24;;;;;;;9.78;4.00;;;;;;;1.84;91.16;98972.03;1771160;81;21003;-80
2022/12/28 02:15:51;;;;;;;7.50;3.83;;;;;;;1.83;91.20;98970.38;1750751;82;21480;-78
2022/12/28 02:18:19;;;;;;;9.30;3.77;;;;;;;1.82;91.21;98970.59;1771151;81;21187;-78
2022/12/28 02:20:54;;;;;;;7.05;3.10;;;;;;;1.83;91.39;98969.05;1770987;81;21460;-78
2022/12/28 02:24:07;;;;;;;5.67;3.08;;;;;;;1.80;91.40;98969.45;1770779;81;20988;-78
2022/12/28 02:27:08;;;;;;;7.25;2.98;;;;;;;1.79;91.54;98967.78;1771111;81;20957;-79
2022/12/28 02:30:01;;;;;;;8.03;3.55;;;;;;;1.73;91.64;98963.77;1770798;81;20977;-79
2022/12/28 02:32:55;;;;;;;13.30;5.92;;;;;;;1.71;91.68;98962.64;1760198;81;21208;-78
2022/12/28 02:35:54;;;;;;;19.10;7.97;;;;;;;1.65;92.08;98958.09;1709767;81;20981;-80
2022/12/28 02:38:29;;;;;;;12.98;7.37;;;;;;;1.64;92.03;98950.59;1770964;81;21072;-80
2022/12/28 02:41:04;;;;;;;9.58;5.15;;;;;;;1.61;92.24;98959.49;1750813;82;21064;-80
2022/12/28 02:43:32;;;;;;;12.25;6.45;;;;;;;1.59;92.42;98956.20;1771001;81;21071;-78
2022/12/28 02:52:55;;;;;;;14.30;6.35;;;;;;;1.40;92.28;98953.25;1771237;81;20973;-80
2022/12/28 02:58:46;;;;;;;17.52;8.05;;;;;;;1.28;92.80;98941.49;1752166;81;21002;-80
2022/12/28 03:01:52;;;;;;;18.15;9.28;;;;;;;1.23;92.88;98930.56;1752308;81;21072;-80
2022/12/28 03:04:46;;;;;;;18.60;9.23;;;;;;;1.19;93.00;98923.12;1751958;81;20993;-79
2022/12/28 03:10:20;;;;;;;33.13;15.32;;;;;;;0.94;94.13;98918.30;1772543;80;20985;-80
2022/12/28 03:13:00;;;;;;;25.17;12.05;;;;;;;0.79;94.66;98920.24;1741384;80;21158;-79
2022/12/28 03:15:34;;;;;;;21.93;8.73;;;;;;;0.63;94.86;98920.53;1717658;83;21013;-78
2022/12/28 03:32:06;;;;;;;11.45;6.42;;;;;;;0.09;99.71;98897.13;1761314;81;20992;-80
2022/12/28 03:34:33;;;;;;;12.82;6.55;;;;;;;-0.01;99.93;98902.74;1761029;81;21090;-80
2022/12/28 03:37:26;;;;;;;16.45;8.68;;;;;;;-0.10;100.00;98906.04;1761258;81;21026;-80
2022/12/28 03:40:11;;;;;;;10.65;6.65;;;;;;;-0.15;100.00;98908.98;1760865;81;22069;-78
2022/12/28 03:45:47;;;;;;;12.18;6.83;;;;;;;-0.30;100.00;98911.68;1761087;81;21008;-78
2022/12/28 03:48:15;;;;;;;11.93;5.97;;;;;;;-0.31;99.27;98919.36;1761210;81;21028;-78
2022/12/28 03:50:44;;;;;;;11.48;5.65;;;;;;;-0.32;100.00;98929.19;1730558;81;21504;-78
2022/12/28 03:53:11;;;;;;;13.30;6.80;;;;;;;-0.34;100.00;98922.41;1761155;81;21476;-79
2022/12/28 03:55:39;;;;;;;17.05;9.63;;;;;;;-0.37;99.16;98928.09;1751336;81;21016;-78
2022/12/28 03:58:06;;;;;;;24.90;11.20;;;;;;;-0.41;98.79;98924.16;1733451;82;20991;-78
2022/12/28 04:00:33;;;;;;;26.93;13.83;;;;;;;-0.47;99.49;98924.90;1730244;82;21011;-77
2022/12/28 04:03:00;;;;;;;32.25;15.88;;;;;;;-0.49;98.80;98923.77;1730510;82;21048;-79
2022/12/28 04:05:27;;;;;;;28.45;13.80;;;;;;;-0.50;99.63;98930.61;1730223;82;21056;-79
2022/12/28 04:07:54;;;;;;;23.60;13.13;;;;;;;-0.49;99.32;98924.27;1730290;82;22330;-78
2022/12/28 04:10:21;;;;;;;19.98;11.10;;;;;;;-0.53;100.00;98921.65;1730227;81;21067;-80
2022/12/28 04:12:48;;;;;;;17.07;9.10;;;;;;;-0.55;100.00;98911.70;1753952;81;21163;-79
2022/12/28 04:15:14;;;;;;;19.67;10.85;;;;;;;-0.59;99.40;98913.92;1745653;82;21020;-79
2022/12/28 04:17:41;;;;;;;27.85;12.45;;;;;;;-0.61;99.01;98906.09;1768618;81;21028;-79
2022/12/28 04:20:08;;;;;;;25.48;11.93;;;;;;;-0.61;98.75;98906.60;1745233;81;21192;-78
2022/12/28 04:22:36;;;;;;;19.70;10.30;;;;;;;-0.63;98.78;98905.97;1762427;81;21552;-79
2022/12/28 04:25:04;;;;;;;21.50;9.78;;;;;;;-0.73;98.22;98898.28;1762642;81;21048;-80
2022/12/28 04:27:31;;;;;;;14.90;8.18;;;;;;;-0.86;100.00;98899.42;1745065;82;20994;-79
2022/12/28 04:29:58;;;;;;;14.73;7.30;;;;;;;-0.88;100.00;98896.95;1762691;81;21306;-78
2022/12/28 04:32:25;;;;;;;11.57;5.72;;;;;;;-0.99;100.00;98886.79;1762723;81;21176;-79
2022/12/28 04:34:52;;;;;;;13.43;7.58;;;;;;;-1.04;100.00;98889.16;1744836;82;21095;-79
2022/12/28 04:37:19;;;;;;;15.32;7.60;;;;;;;-1.14;100.00;98887.30;1762633;81;21008;-78
2022/12/28 04:39:46;;;;;;;14.68;8.55;;;;;;;-1.18;100.00;98881.53;1762369;81;21279;-78
2022/12/28 04:42:13;;;;;;;18.45;9.80;;;;;;;-1.22;100.00;98872.25;1762873;81;21575;-78
2022/12/28 04:44:40;;;;;;;15.63;9.60;;;;;;;-1.29;100.00;98875.82;1762445;81;20989;-79
2022/12/28 04:47:07;;;;;;;26.57;12.43;;;;;;;-1.32;100.00;98877.52;1762640;81;21002;-78
2022/12/28 04:49:34;;;;;;;22.52;10.90;;;;;;;-1.32;100.00;98869.55;1744679;80;20994;-79
2022/12/28 04:52:01;;;;;;;21.50;11.22;;;;;;;-1.30;100.00;98868.34;1762766;81;21055;-78
2022/12/28 04:54:28;;;;;;;30.60;14.78;;;;;;;-1.31;100.00;98855.23;1744938;82;21001;-79
2022/12/28 04:56:54;;;;;;;17.15;10.23;;;;;;;-1.32;100.00;98855.75;1753968;81;21663;-79
2022/12/28 04:59:21;;;;;;;18.05;10.32;;;;;;;-1.32;100.00;98850.43;1752071;81;21010;-81
2022/12/28 05:01:48;;;;;;;22.02;9.78;;;;;;;-1.30;100.00;98859.04;1752467;81;21021;-79
2022/12/28 05:04:15;;;;;;;16.62;9.73;;;;;;;-1.26;100.00;98852.87;1752204;81;21048;-79
2022/12/28 05:06:42;;;;;;;21.87;11.75;;;;;;;-1.20;100.00;98854.77;1752467;81;21052;-79
2022/12/28 05:09:09;;;;;;;22.15;12.20;;;;;;;-1.17;100.00;98855.75;1752202;81;21898;-78
2022/12/28 05:11:36;;;;;;;23.27;15.35;;;;;;;-1.18;100.00;98853.60;1756131;81;21048;-78
2022/12/28 05:14:03;;;;;;;17.85;10.53;;;;;;;-1.17;100.00;98865.89;1744905;82;20993;-79
2022/12/28 05:16:30;;;;;;;16.73;8.40;;;;;;;-1.16;100.00;98853.41;1762521;81;21036;-79
2022/12/28 05:18:57;;;;;;;21.93;7.40;;;;;;;-1.14;100.00;98861.52;1762693;81;21492;-79
2022/12/28 05:21:26;;;;;;;15.18;7.45;;;;;;;-1.17;100.00;98857.08;1762562;81;20996;-79
2022/12/28 05:23:53;;;;;;;30.10;10.45;;;;;;;-1.14;100.00;98856.70;1762720;81;21056;-78
2022/12/28 05:26:23;;;;;;;29.05;14.03;;;;;;;-1.21;100.00;98858.45;1744817;82;21394;-78
2022/12/28 05:28:50;;;;;;;45.25;19.50;;;;;;;-1.33;100.00;98847.45;1762556;81;21008;-78
2022/12/28 05:31:19;;;;;;;54.35;20.70;;;;;;;-1.37;100.00;98840.02;1762571;81;21039;-78
2022/12/28 05:33:46;;;;;;;55.65;23.90;;;;;;;-1.33;100.00;98843.97;1762554;81;21461;-79
2022/12/28 05:36:19;;;;;;;47.70;20.57;;;;;;;-1.34;100.00;98839.16;1744790;82;21344;-78
2022/12/28 05:38:46;;;;;;;28.40;11.12;;;;;;;-1.34;100.00;98846.31;1762618;81;21084;-79
2022/12/28 05:41:25;;;;;;;30.60;11.53;;;;;;;-1.34;100.00;98838.34;1744934;81;21005;-79
2022/12/28 05:43:53;;;;;;;17.82;9.00;;;;;;;-1.30;100.00;98836.44;1762643;81;21457;-79
2022/12/28 05:46:24;;;;;;;20.43;8.83;;;;;;;-1.25;100.00;98832.73;1762667;81;21052;-78
2022/12/28 05:48:52;;;;;;;21.05;10.08;;;;;;;-1.23;100.00;98825.39;1762602;81;21017;-78
2022/12/28 05:51:20;;;;;;;19.15;9.45;;;;;;;-1.20;100.00;98834.34;1745399;81;21058;-78
2022/12/28 05:53:47;;;;;;;22.07;8.23;;;;;;;-1.16;100.00;98825.48;1739674;82;21036;-80
2022/12/28 05:56:18;;;;;;;16.25;7.92;;;;;;;-1.19;100.00;98822.70;1739550;81;21022;-78
2022/12/28 05:58:47;;;;;;;20.17;10.00;;;;;;;-1.18;100.00;98820.35;1723395;82;21603;-78
2022/12/28 06:01:16;;;;;;;24.57;8.58;;;;;;;-1.21;100.00;98826.02;1721286;81;21476;-79
2022/12/28 06:03:44;;;;;;;25.72;12.45;;;;;;;-1.32;100.00;98824.34;1761158;81;21071;-79
2022/12/28 06:06:16;;;;;;;60.98;26.05;;;;;;;-1.36;100.00;98820.42;1754348;81;21026;-78
2022/12/28 06:08:43;;;;;;;62.58;27.10;;;;;;;-1.44;100.00;98820.83;1751630;81;21435;-78
2022/12/28 06:11:12;;;;;;;90.47;33.75;;;;;;;-1.47;100.00;98826.99;1743164;81;21028;-78
2022/12/28 06:13:39;;;;;;;68.95;29.55;;;;;;;-1.59;100.00;98823.97;1740994;80;21017;-78
2022/12/28 06:16:08;;;;;;;53.15;23.98;;;;;;;-1.67;100.00;98812.61;1792486;80;21457;-79
2022/12/28 06:18:35;;;;;;;54.80;23.45;;;;;;;-1.72;100.00;98809.97;1792613;80;21004;-79
2022/12/28 06:21:07;;;;;;;41.20;20.77;;;;;;;-1.77;100.00;98813.70;1788624;80;21051;-79
2022/12/28 06:23:34;;;;;;;47.30;23.00;;;;;;;-1.78;100.00;98817.88;1760647;81;21015;-79
2022/12/28 06:26:03;;;;;;;51.70;23.65;;;;;;;-1.82;100.00;98808.59;1754791;81;22007;-78
2022/12/28 06:28:29;;;;;;;;;;;;;;;-1.84;100.00;98814.60;1754234;81;21076;-78
2022/12/28 06:31:14;;;;;;;44.65;24.65;;;;;;;-1.84;100.00;98811.44;1708164;81;40124;-79
2022/12/28 06:33:41;;;;;;;38.55;21.23;;;;;;;-1.83;100.00;98796.31;1747172;81;21006;-79
2022/12/28 06:36:17;;;;;;;43.78;22.52;;;;;;;-1.77;100.00;98800.92;1758154;81;21064;-78
2022/12/28 06:38:44;;;;;;;53.75;25.97;;;;;;;-1.72;100.00;98809.15;1761228;81;21078;-78
2022/12/28 06:41:12;;;;;;;44.65;24.95;;;;;;;-1.71;100.00;98798.84;1754222;81;20990;-79
2022/12/28 06:43:40;;;;;;;58.87;23.85;;;;;;;-1.72;100.00;98793.20;1751578;81;21023;-79
2022/12/28 06:46:07;;;;;;;37.78;19.73;;;;;;;-1.75;100.00;98790.42;1756216;81;21003;-79
2022/12/28 06:48:34;;;;;;;50.45;26.82;;;;;;;-1.75;100.00;98794.41;1759140;80;21036;-79
2022/12/28 06:51:07;;;;;;;108.70;49.03;;;;;;;-1.81;100.00;98792.46;1744283;81;20994;-78
2022/12/28 06:53:35;;;;;;;109.90;49.88;;;;;;;-1.82;100.00;98801.95;1751658;81;21014;-79
2022/12/28 06:56:14;;;;;;;92.60;43.08;;;;;;;-1.82;100.00;98796.13;1747590;81;21042;-79
2022/12/28 06:58:41;;;;;;;73.57;31.02;;;;;;;-1.77;100.00;98796.42;1751223;81;21452;-78
2022/12/28 07:01:20;;;;;;;50.38;25.40;;;;;;;-1.82;100.00;98787.34;1769719;80;21029;-78
2022/12/28 07:03:48;;;;;;;57.40;28.07;;;;;;;-1.84;100.00;98774.23;1774568;80;21088;-79
2022/12/28 07:06:17;;;;;;;43.78;24.27;;;;;;;-1.82;100.00;98775.38;1739830;80;21036;-79
2022/12/28 07:08:44;;;;;;;32.63;17.82;;;;;;;-1.71;100.00;98774.92;1748673;80;21509;-79
2022/12/28 07:11:13;;;;;;;29.85;16.32;;;;;;;-1.64;100.00;98763.88;1736530;80;21385;-78
2022/12/28 07:13:40;;;;;;;35.85;16.97;;;;;;;-1.61;100.00;98765.38;1739411;81;21158;-79
2022/12/28 07:16:14;;;;;;;38.42;17.92;;;;;;;-1.58;100.00;98764.99;1737497;81;21026;-79
2022/12/28 07:18:41;;;;;;;42.70;22.35;;;;;;;-1.55;100.00;98764.61;1740630;80;21103;-79
2022/12/28 07:21:13;;;;;;;36.93;22.58;;;;;;;-1.55;100.00;98757.97;1740857;80;21023;-78
2022/12/28 07:23:40;;;;;;;58.83;29.00;;;;;;;-1.45;100.00;98760.69;1726191;80;21101;-79
2022/12/28 07:26:10;;;;;;;55.45;25.00;;;;;;;-1.38;100.00;98756.77;1742610;81;21052;-78
2022/12/28 07:28:40;;;;;;;93.97;48.87;;;;;;;-1.34;100.00;98759.39;1744896;80;21570;-78
2022/12/28 07:31:10;;;;;;;60.75;34.60;;;;;;;-1.31;100.00;98749.70;1743400;81;21041;-78
2022/12/28 07:33:36;;;;;;;47.67;28.45;;;;;;;-1.29;100.00;98739.69;1774970;80;21081;-78
2022/12/28 07:36:05;;;;;;;43.00;22.37;;;;;;;-1.24;100.00;98739.97;1752166;80;21491;-78
2022/12/28 07:38:32;;;;;;;55.95;32.88;;;;;;;-1.20;100.00;98745.72;1738339;80;21576;-80
2022/12/28 07:41:03;;;;;;;51.00;27.45;;;;;;;-1.30;100.00;98749.19;1751907;80;21015;-80
2022/12/28 07:43:30;;;;;;;59.35;36.08;;;;;;;-1.23;100.00;98745.60;1751442;81;21510;-79
2022/12/28 07:46:09;;;;;;;60.43;37.50;;;;;;;-1.30;100.00;98744.69;1751036;80;21027;-79
2022/12/28 07:48:36;;;;;;;;;;;;;;;-1.35;100.00;98744.45;1749519;81;21093;-78
2022/12/28 07:51:28;;;;;;;57.00;32.42;;;;;;;-1.33;100.00;98739.76;1744146;80;21645;-78
2022/12/28 07:53:56;;;;;;;47.15;26.12;;;;;;;-1.25;100.00;98740.98;1744515;81;21065;-79
2022/12/28 07:56:23;;;;;;;59.77;27.27;;;;;;;-1.17;100.00;98736.06;1739443;81;21055;-78
2022/12/28 07:58:52;;;;;;;38.95;20.65;;;;;;;-1.12;100.00;98738.97;1734376;81;21015;-78
2022/12/28 08:01:20;;;;;;;29.63;16.00;;;;;;;-1.03;100.00;98735.69;1721178;81;21046;-79
2022/12/28 08:03:53;;;;;;;38.63;21.68;;;;;;;-0.97;100.00;98731.77;1742522;81;21828;-79
2022/12/28 08:06:25;;;;;;;340.37;199.75;;;;;;;-0.96;100.00;98736.08;1757423;80;22006;-78
2022/12/28 08:08:51;;;;;;;;;;;;;;;-0.88;100.00;98733.30;1745711;80;21074;-79
2022/12/28 08:11:21;;;;;;;81.70;36.53;;;;;;;-0.78;100.00;98727.66;1743575;81;20215;-80
2022/12/28 08:13:49;;;;;;;105.43;67.32;;;;;;;-0.64;100.00;98725.97;1748318;81;21516;-78
2022/12/28 08:16:17;;;;;;;84.70;47.70;;;;;;;-0.60;100.00;98720.56;1714482;81;21492;-77
2022/12/28 08:18:45;;;;;;;344.35;145.90;;;;;;;-0.49;100.00;98713.41;1735873;81;21027;-79
2022/12/28 08:21:18;;;;;;;296.85;131.07;;;;;;;-0.39;100.00;98714.41;1739945;81;21070;-79
2022/12/28 08:23:45;;;;;;;373.05;165.92;;;;;;;-0.29;100.00;98707.72;1739198;81;21004;-78
2022/12/28 08:26:17;;;;;;;298.32;130.95;;;;;;;-0.16;100.00;98710.19;1740784;81;21094;-78
2022/12/28 08:28:44;;;;;;;182.12;80.03;;;;;;;-0.08;100.00;98704.72;1733942;81;21030;-80
2022/12/28 08:31:17;;;;;;;122.78;53.45;;;;;;;-0.01;100.00;98698.38;1740797;79;21141;-78
2022/12/28 08:33:44;;;;;;;246.95;119.90;;;;;;;0.15;100.00;98700.43;1757903;80;20979;-78
2022/12/28 08:36:11;;;;;;;121.00;54.60;;;;;;;0.16;100.00;98700.23;1749436;80;21014;-80
2022/12/28 08:38:38;;;;;;;262.32;109.80;;;;;;;0.28;100.00;98695.19;1764177;80;21080;-80
2022/12/28 08:41:06;;;;;;;183.27;79.05;;;;;;;0.33;100.00;98694.06;1738761;80;22047;-77
2022/12/28 08:43:34;;;;;;;174.05;77.53;;;;;;;0.44;100.00;98689.52;1736992;80;20956;-79
2022/12/28 08:46:04;;;;;;;266.05;110.60;;;;;;;0.52;100.00;98689.36;1738393;81;21519;-78
2022/12/28 08:48:31;;;;;;;350.00;146.10;;;;;;;0.66;100.00;98690.72;1730795;81;21576;-81
2022/12/28 08:51:12;;;;;;;106.17;46.37;;;;;;;0.79;100.00;98687.60;1736053;80;21129;-81
2022/12/28 08:53:39;;;;;;;102.17;43.00;;;;;;;0.98;100.00;98680.66;1740673;81;21126;-78
2022/12/28 08:56:17;;;;;;;76.50;36.85;;;;;;;1.09;100.00;98680.58;1751595;80;22122;-78
2022/12/28 08:58:44;;;;;;;79.85;36.80;;;;;;;1.28;100.00;98682.95;1755962;80;21562;-77
2022/12/28 09:01:24;;;;;;;204.23;85.32;;;;;;;1.43;100.00;98681.44;1742217;81;21038;-78
2022/12/28 09:03:53;;;;;;;76.35;38.30;;;;;;;1.56;100.00;98686.28;1740802;80;21000;-78
2022/12/28 09:06:23;;;;;;;90.25;46.20;;;;;;;1.72;100.00;98689.58;1741277;80;21183;-79
2022/12/28 09:08:51;;;;;;;50.00;26.30;;;;;;;1.84;100.00;98678.03;1737207;80;21461;-80
2022/12/28 09:11:18;;;;;;;51.70;24.17;;;;;;;1.93;97.73;98678.12;1748888;80;21052;-78
2022/12/28 09:13:45;;;;;;;48.05;20.45;;;;;;;2.08;99.32;98673.89;1743074;81;20972;-80
2022/12/28 09:16:15;;;;;;;46.50;23.27;;;;;;;2.22;100.00;98674.66;1778644;79;21042;-80
2022/12/28 09:18:43;;;;;;;45.33;20.20;;;;;;;2.36;98.24;98676.27;1783617;80;22214;-79
2022/12/28 09:21:16;;;;;;;46.53;25.77;;;;;;;2.46;98.68;98678.50;1742608;80;21461;-79
2022/12/28 09:23:45;;;;;;;34.73;17.15;;;;;;;2.47;97.31;98674.27;1745187;80;21083;-80
2022/12/28 09:26:15;;;;;;;34.13;19.77;;;;;;;2.57;95.06;98672.51;1783009;80;21032;-78
2022/12/28 09:28:48;;;;;;;37.63;19.92;;;;;;;2.74;98.21;98666.16;1735076;81;21507;-80
2022/12/28 09:31:15;;;;;;;48.65;23.02;;;;;;;2.86;97.36;98672.98;1743832;81;22345;-80
2022/12/28 09:36:36;;;;;;;22.32;10.93;;;;;;;3.19;96.31;98669.59;1745087;80;21189;-79
2022/12/28 09:39:19;;;;;;;22.80;11.28;;;;;;;3.18;91.42;98666.61;1743088;80;21961;-78
2022/12/28 09:42:11;;;;;;;11.40;5.97;;;;;;;3.40;94.33;98667.87;1742982;80;21109;-78
2022/12/28 09:44:46;;;;;;;14.25;7.25;;;;;;;3.59;93.04;98662.58;1740789;81;21662;-78
2022/12/28 09:47:39;;;;;;;25.95;10.28;;;;;;;3.85;95.95;98650.30;1740163;80;21168;-80
2022/12/28 09:50:23;;;;;;;34.80;9.60;;;;;;;4.09;93.74;98633.84;1740147;80;21105;-80
2022/12/28 09:53:30;;;;;;;10.58;5.28;;;;;;;4.18;92.72;98633.84;1737328;81;21071;-80
2022/12/28 09:56:02;;;;;;;9.93;6.05;;;;;;;4.38;92.33;98622.09;1717810;80;21539;-80
2022/12/28 09:58:31;;;;;;;14.87;6.45;;;;;;;4.63;91.43;98626.83;1761229;80;21115;-80
2022/12/28 10:00:59;;;;;;;12.70;5.80;;;;;;;4.73;87.90;98621.73;1736986;81;20967;-80
2022/12/28 10:03:36;;;;;;;9.75;4.33;;;;;;;4.88;90.02;98616.48;1740807;81;21044;-80
2022/12/28 10:06:09;;;;;;;11.53;6.53;;;;;;;5.03;88.60;98620.36;1719147;81;21071;-80
2022/12/28 10:08:41;;;;;;;45.30;9.93;;;;;;;5.11;88.84;98616.53;1747412;80;21108;-80
2022/12/28 10:11:08;;;;;;;14.95;7.55;;;;;;;5.17;88.12;98625.02;1743721;80;21189;-81
2022/12/28 10:13:37;;;;;;;5.75;3.00;;;;;;;5.20;88.03;98619.70;1744598;80;20913;-80
2022/12/28 10:16:05;;;;;;;7.20;3.30;;;;;;;5.28;85.49;98625.56;1751737;80;21035;-80
2022/12/28 10:18:34;;;;;;;12.18;3.65;;;;;;;5.30;84.28;98614.08;1714302;80;21040;-79
2022/12/28 10:21:01;;;;;;;11.10;4.78;;;;;;;5.33;85.53;98621.67;1757139;80;20999;-81
2022/12/28 10:23:30;;;;;;;3.65;2.17;;;;;;;5.35;85.93;98630.84;1747884;80;21198;-80
2022/12/28 10:25:57;;;;;;;11.95;7.05;;;;;;;5.36;85.58;98624.41;1753022;80;21070;-81
2022/12/28 10:28:27;;;;;;;18.35;6.58;;;;;;;5.26;78.53;98629.02;1739728;80;21113;-80
2022/12/28 10:31:06;;;;;;;13.50;6.15;;;;;;;5.28;82.68;98624.22;1755222;80;21055;-80
2022/12/28 10:33:39;;;;;;;59.25;19.20;;;;;;;5.29;84.65;98620.48;1756704;80;21080;-80
2022/12/28 10:36:13;;;;;;;34.78;14.13;;;;;;;5.30;84.67;98618.64;1742229;81;21579;-78
2022/12/28 10:38:42;;;;;;;14.73;5.30;;;;;;;5.35;84.16;98618.75;1742526;80;21471;-78
2022/12/28 10:41:11;;;;;;;;;;;;;;;5.36;83.54;98621.72;1761062;80;22120;-80
2022/12/28 10:43:40;;;;;;;6.72;3.33;;;;;;;5.40;82.34;98626.13;1752884;80;20245;-80
2022/12/28 10:46:18;;;;;;;34.20;11.30;;;;;;;5.37;82.98;98626.86;1759127;80;21047;-81
2022/12/28 10:48:49;;;;;;;238.32;80.17;;;;;;;5.39;82.14;98613.22;1741252;80;21052;-78
2022/12/28 10:51:19;;;;;;;96.63;35.17;;;;;;;5.37;79.46;98614.77;1743763;80;21019;-78
2022/12/28 10:53:50;;;;;;;35.13;14.07;;;;;;;5.39;82.27;98617.25;1748775;81;21011;-78
2022/12/28 10:56:28;;;;;;;20.77;9.20;;;;;;;5.41;81.78;98617.83;1734944;81;21125;-78
2022/12/28 10:59:17;;;;;;;9.50;4.63;;;;;;;5.41;82.70;98619.17;1735383;81;21885;-81
2022/12/28 11:01:44;;;;;;;13.28;6.75;;;;;;;5.43;83.67;98606.84;1702818;82;21094;-80
2022/12/28 11:04:21;;;;;;;11.60;5.00;;;;;;;5.42;82.34;98591.24;1729134;82;21518;-79
2022/12/28 11:06:56;;;;;;;238.65;80.25;;;;;;;5.43;83.30;98586.69;1743743;80;21047;-80
2022/12/28 11:09:36;;;;;;;91.20;30.02;;;;;;;5.36;79.61;98584.09;1747159;80;21039;-78
2022/12/28 11:12:24;;;;;;;25.92;11.80;;;;;;;5.41;82.04;98579.38;1741981;80;21149;-78
2022/12/28 11:14:51;;;;;;;19.57;8.03;;;;;;;5.45;82.76;98574.64;1746201;80;21198;-78
2022/12/28 11:17:24;;;;;;;20.90;11.85;;;;;;;5.47;82.17;98564.50;1751578;80;21079;-79
2022/12/28 11:19:54;;;;;;;18.82;9.30;;;;;;;5.52;80.12;98562.44;1735906;81;21016;-78
2022/12/28 11:22:24;;;;;;;39.50;11.65;;;;;;;5.54;79.44;98553.60;1746155;80;21043;-78
2022/12/28 11:24:51;;;;;;;12.13;7.15;;;;;;;5.55;80.87;98548.52;1758213;80;20976;-78
2022/12/28 11:27:20;;;;;;;31.62;11.03;;;;;;;5.60;82.47;98540.58;1751523;81;21697;-80
2022/12/28 11:29:48;;;;;;;21.75;11.03;;;;;;;5.64;82.37;98535.85;1738887;81;26308;-78
2022/12/28 11:32:22;;;;;;;;;;;;;;;5.70;82.32;98529.22;1737421;80;21861;-78
2022/12/28 11:34:50;;;;;;;8.63;4.45;;;;;;;5.73;81.36;98522.87;1732535;81;20500;-78
2022/12/28 11:37:17;;;;;;;8.88;4.05;;;;;;;5.77;80.50;98513.26;1735868;81;21051;-80
2022/12/28 11:39:47;;;;;;;20.75;8.15;;;;;;;5.83;81.68;98504.78;1735834;80;21716;-80
2022/12/28 11:42:40;;;;;;;44.53;14.45;;;;;;;5.90;82.90;98507.66;1759609;79;20978;-80
2022/12/28 11:45:15;;;;;;;32.33;19.10;;;;;;;6.03;81.77;98512.47;1740360;80;20983;-78
2022/12/28 11:47:42;;;;;;;21.48;11.08;;;;;;;6.09;79.80;98503.45;1745383;80;21465;-78
2022/12/28 11:50:37;;;;;;;18.15;10.78;;;;;;;6.19;79.92;98503.12;1746467;80;21328;-80
2022/12/28 11:53:34;;;;;;;7.50;3.75;;;;;;;6.17;77.50;98501.20;1745012;80;21170;-79
2022/12/28 11:56:07;;;;;;;12.10;7.42;;;;;;;6.31;80.46;98499.03;1734722;80;21043;-78
2022/12/28 11:58:42;;;;;;;13.53;5.60;;;;;;;6.35;79.89;98492.13;1756258;80;21419;-80
2022/12/28 12:01:33;;;;;;;4.90;3.08;;;;;;;6.46;80.40;98499.32;1752921;80;21019;-78
2022/12/28 12:04:08;;;;;;;16.20;5.08;;;;;;;6.55;79.40;98506.48;1740466;80;21047;-78
2022/12/28 12:06:47;;;;;;;16.87;7.80;;;;;;;6.67;80.31;98498.36;1735964;80;21060;-78
2022/12/28 12:09:29;;;;;;;11.05;4.15;;;;;;;6.83;79.28;98504.80;1740568;81;21086;-78
2022/12/28 12:11:58;;;;;;;14.85;3.60;;;;;;;6.91;78.51;98497.66;1741392;80;21011;-80
2022/12/28 12:14:43;;;;;;;9.50;3.42;;;;;;;7.03;75.96;98471.48;1748001;80;21034;-80
2022/12/28 12:17:15;;;;;;;6.62;3.20;;;;;;;6.97;75.20;98477.30;1737192;80;21015;-80